Time;durP1;ratioP1;P1;durP2;ratioP2;P2;SDS_P1;SDS_P2;PMS_P1;PMS_P2;Temp;Humidity;BMP_temperature;BMP_pressure;BME280_temperature;BME280_humidity;BME280_pressure;Samples;Min_cycle;Max_cycle;Signal;HPM_P1;HPM_P2
2023/09/06 00:01:06;;;;;;;12.97;12.07;;;;;;;15.77;100.00;93348.50;5060898;28;20225;-82
2023/09/06 00:03:32;;;;;;;13.50;12.13;;;;;;;15.90;100.00;93338.00;5057725;28;20197;-81
2023/09/06 00:05:58;;;;;;;13.73;12.53;;;;;;;15.80;100.00;93332.13;5060379;28;20226;-85
2023/09/06 00:08:24;;;;;;;12.50;11.60;;;;;;;15.86;100.00;93336.22;5071217;28;20200;-84
2023/09/06 00:10:52;;;;;;;12.77;11.77;;;;;;;15.73;100.00;93331.75;5070667;28;20308;-84
2023/09/06 00:13:18;;;;;;;12.70;11.77;;;;;;;15.65;100.00;93345.56;5071040;28;20190;-82
2023/09/06 00:15:43;;;;;;;13.07;12.17;;;;;;;15.59;100.00;93334.38;5070147;28;20275;-84
2023/09/06 00:18:09;;;;;;;13.60;12.40;;;;;;;15.68;100.00;93339.72;5070391;28;20207;-85
2023/09/06 00:20:36;;;;;;;13.70;12.50;;;;;;;15.77;100.00;93341.38;5080946;28;20231;-78
2023/09/06 00:23:08;;;;;;;11.83;11.03;;;;;;;15.79;100.00;93341.09;5071681;28;20792;-85
2023/09/06 00:25:34;;;;;;;12.37;11.47;;;;;;;15.83;100.00;93347.31;5070159;28;20232;-80
2023/09/06 00:28:03;;;;;;;12.90;11.10;;;;;;;15.84;100.00;93341.00;5069543;28;20188;-84
2023/09/06 00:30:29;;;;;;;13.57;12.47;;;;;;;15.82;100.00;93343.16;5070241;28;20230;-84
2023/09/06 00:33:42;;;;;;;12.73;11.60;;;;;;;15.74;100.00;93341.19;5068845;28;20190;-84
2023/09/06 00:36:07;;;;;;;12.80;11.93;;;;;;;15.42;100.00;93322.84;5068137;28;20220;-84
2023/09/06 00:38:33;;;;;;;12.77;11.80;;;;;;;15.54;100.00;93333.66;5070380;28;20185;-83
2023/09/06 00:40:58;;;;;;;13.20;12.23;;;;;;;15.54;100.00;93317.88;5081258;28;20225;-85
2023/09/06 00:43:23;;;;;;;13.27;11.87;;;;;;;15.61;100.00;93313.03;5070253;28;20181;-82
2023/09/06 00:45:50;;;;;;;13.67;12.37;;;;;;;15.58;100.00;93330.16;5063709;28;20228;-85
2023/09/06 00:48:24;;;;;;;12.63;11.57;;;;;;;15.57;100.00;93333.09;5057819;28;20182;-84
2023/09/06 00:50:51;;;;;;;12.77;11.73;;;;;;;15.86;100.00;93333.56;5056452;28;20225;-80
2023/09/06 00:53:18;;;;;;;13.33;12.30;;;;;;;15.74;100.00;93317.50;5068370;28;20177;-85
2023/09/06 00:55:44;;;;;;;12.83;11.83;;;;;;;15.55;100.00;93319.41;5069557;28;20292;-85
2023/09/06 00:58:15;;;;;;;13.73;12.53;;;;;;;15.70;100.00;93313.91;5068529;28;20683;-84
2023/09/06 01:00:41;;;;;;;13.20;12.20;;;;;;;15.70;100.00;93306.00;5069656;28;20229;-85
2023/09/06 01:03:06;;;;;;;13.17;12.17;;;;;;;15.88;100.00;93307.75;5069618;28;20189;-81
2023/09/06 01:05:41;;;;;;;14.07;12.97;;;;;;;15.82;100.00;93311.53;5069679;28;20384;-84
2023/09/06 01:08:09;;;;;;;14.33;13.13;;;;;;;15.60;100.00;93309.59;5070161;28;20211;-85
2023/09/06 01:10:35;;;;;;;14.43;13.10;;;;;;;15.72;100.00;93309.13;5069166;28;20225;-84
2023/09/06 01:13:00;;;;;;;13.93;12.80;;;;;;;15.76;100.00;93294.28;5069192;28;20220;-85
2023/09/06 01:15:26;;;;;;;13.10;12.10;;;;;;;15.84;100.00;93302.28;5069973;28;20225;-85
2023/09/06 01:17:54;;;;;;;13.47;12.07;;;;;;;15.90;100.00;93310.88;5070029;28;20185;-80
2023/09/06 01:20:36;;;;;;;13.43;12.43;;;;;;;15.82;100.00;93316.81;5068145;28;20260;-85
2023/09/06 01:23:40;;;;;;;14.00;12.67;;;;;;;15.87;100.00;93316.72;5069844;28;20181;-81
2023/09/06 01:26:06;;;;;;;12.87;11.87;;;;;;;15.92;100.00;93314.75;5061632;28;20238;-85
2023/09/06 01:28:32;;;;;;;13.63;12.53;;;;;;;15.93;100.00;93315.53;5069625;28;20192;-86
2023/09/06 01:30:59;;;;;;;13.40;12.27;;;;;;;15.83;100.00;93310.47;5068944;28;20276;-84
2023/09/06 01:33:27;;;;;;;13.83;12.60;;;;;;;15.91;100.00;93301.88;5069900;28;20185;-85
2023/09/06 01:35:53;;;;;;;13.53;12.27;;;;;;;15.99;100.00;93304.63;5077681;28;20225;-84
2023/09/06 01:38:18;;;;;;;14.07;12.73;;;;;;;16.10;100.00;93310.47;5068216;28;20274;-83
2023/09/06 01:40:44;;;;;;;12.50;11.60;;;;;;;15.97;100.00;93301.50;5069105;28;20226;-85
2023/09/06 01:43:10;;;;;;;12.83;11.63;;;;;;;16.02;100.00;93303.25;5069189;28;20194;-84
2023/09/06 01:45:45;;;;;;;13.73;12.43;;;;;;;15.96;100.00;93314.97;5067073;28;20346;-85
2023/09/06 01:48:11;;;;;;;13.33;12.33;;;;;;;15.94;100.00;93306.56;5069241;28;20181;-85
2023/09/06 01:50:36;;;;;;;13.17;12.13;;;;;;;16.02;100.00;93309.31;5068890;28;20236;-82
2023/09/06 01:53:02;;;;;;;15.00;13.47;;;;;;;15.94;100.00;93307.34;5064452;28;20200;-84
2023/09/06 01:55:27;;;;;;;14.77;13.27;;;;;;;15.87;100.00;93296.44;5068251;28;20229;-84
2023/09/06 01:57:52;;;;;;;12.53;11.63;;;;;;;15.84;100.00;93293.63;5069292;28;20197;-85
2023/09/06 02:00:28;;;;;;;16.13;12.00;;;;;;;15.90;100.00;93300.34;5068526;28;20296;-85
2023/09/06 02:02:56;;;;;;;13.83;12.63;;;;;;;15.69;100.00;93289.41;5068592;28;20233;-83
2023/09/06 02:05:22;;;;;;;13.53;12.43;;;;;;;15.87;100.00;93293.03;5079125;28;20232;-85
2023/09/06 02:07:48;;;;;;;13.17;11.97;;;;;;;15.83;100.00;93302.56;5070906;28;20204;-85
2023/09/06 02:10:13;;;;;;;12.57;11.67;;;;;;;15.76;100.00;93295.09;5068637;28;20244;-84
2023/09/06 02:12:39;;;;;;;13.27;12.27;;;;;;;15.84;100.00;93301.50;5068529;28;20173;-79
2023/09/06 02:15:06;;;;;;;13.70;12.50;;;;;;;15.76;100.00;93296.94;5068557;28;20185;-85
2023/09/06 02:17:32;;;;;;;13.07;12.07;;;;;;;15.79;100.00;93305.03;5081883;28;20200;-84
2023/09/06 02:20:01;;;;;;;13.37;12.27;;;;;;;15.80;100.00;93301.31;5068535;28;20188;-80
2023/09/06 02:22:26;;;;;;;14.10;12.60;;;;;;;15.60;100.00;93311.44;5067149;28;20237;-85
2023/09/06 02:24:52;;;;;;;12.93;11.83;;;;;;;15.61;100.00;93307.75;5057012;28;20967;-73
2023/09/06 02:27:17;;;;;;;13.03;11.90;;;;;;;15.54;100.00;93302.09;5058951;28;20194;-82
2023/09/06 02:29:42;;;;;;;12.60;11.60;;;;;;;15.63;100.00;93309.00;5072834;28;20203;-84
2023/09/06 02:32:08;;;;;;;12.47;11.57;;;;;;;15.78;100.00;93308.72;5074147;28;20217;-85
2023/09/06 02:34:35;;;;;;;14.23;12.83;;;;;;;15.58;100.00;93303.84;5070335;28;20186;-85
2023/09/06 02:37:00;;;;;;;13.17;12.33;;;;;;;15.71;100.00;93312.81;5072299;28;20922;-85
2023/09/06 02:39:26;;;;;;;13.80;12.63;;;;;;;15.61;100.00;93313.03;5072265;28;20182;-84
2023/09/06 02:41:51;;;;;;;13.73;12.43;;;;;;;15.71;100.00;93312.81;5078728;28;20247;-84
2023/09/06 02:44:17;;;;;;;14.07;12.97;;;;;;;15.49;100.00;93310.06;5073009;28;20275;-85
2023/09/06 02:46:43;;;;;;;13.70;12.70;;;;;;;15.49;100.00;93307.44;5071538;28;20235;-84
2023/09/06 02:49:12;;;;;;;13.57;12.57;;;;;;;15.59;100.00;93310.69;5070071;28;20208;-82
2023/09/06 02:51:39;;;;;;;13.57;12.17;;;;;;;15.64;100.00;93307.94;5071422;28;20827;-81
2023/09/06 02:54:04;;;;;;;13.53;12.23;;;;;;;15.52;100.00;93288.41;5072159;28;20268;-85
2023/09/06 02:56:29;;;;;;;14.03;12.73;;;;;;;15.72;100.00;93309.88;5071734;28;20270;-84
2023/09/06 02:58:55;;;;;;;15.33;12.13;;;;;;;15.76;100.00;93305.63;5060432;28;20186;-85
2023/09/06 03:01:20;;;;;;;14.17;13.17;;;;;;;15.77;100.00;93306.38;5070541;28;20217;-83
2023/09/06 03:03:47;;;;;;;13.60;12.20;;;;;;;15.80;100.00;93311.06;5060253;28;20947;-82
2023/09/06 03:06:17;;;;;;;13.80;12.60;;;;;;;15.81;100.00;93304.72;5065730;28;20240;-85
2023/09/06 03:08:47;;;;;;;13.70;12.60;;;;;;;15.98;100.00;93315.44;5065582;28;20216;-84
2023/09/06 03:11:14;;;;;;;13.83;12.83;;;;;;;15.81;100.00;93316.03;5062699;28;20224;-83
2023/09/06 03:13:41;;;;;;;13.17;12.00;;;;;;;15.92;100.00;93312.13;5072092;28;20200;-85
2023/09/06 03:16:07;;;;;;;12.40;11.57;;;;;;;15.98;100.00;93312.81;5064787;28;20230;-85
2023/09/06 03:18:33;;;;;;;13.03;12.00;;;;;;;16.06;100.00;93306.88;5065463;28;20256;-84
2023/09/06 03:21:04;;;;;;;13.83;12.63;;;;;;;16.08;100.00;93317.09;5071341;28;20228;-84
2023/09/06 03:23:32;;;;;;;13.60;12.50;;;;;;;16.07;100.00;93311.06;5071943;28;20177;-83
2023/09/06 03:25:57;;;;;;;13.47;12.43;;;;;;;16.26;100.00;93316.19;5071416;28;20225;-84
2023/09/06 03:28:28;;;;;;;13.30;12.10;;;;;;;16.09;100.00;93319.44;5070718;28;20196;-84
2023/09/06 03:30:58;;;;;;;12.73;11.50;;;;;;;16.18;100.00;93322.16;5071133;28;20231;-84
2023/09/06 03:33:27;;;;;;;12.80;11.83;;;;;;;16.22;100.00;93326.53;5070305;28;20197;-84
2023/09/06 03:35:53;;;;;;;12.77;11.70;;;;;;;15.89;100.00;93275.09;5071526;28;20277;-84
2023/09/06 03:38:20;;;;;;;13.27;12.17;;;;;;;16.05;100.00;93315.81;5071850;28;20259;-84
2023/09/06 03:40:46;;;;;;;12.87;11.77;;;;;;;16.18;100.00;93312.41;5071330;28;20265;-84
2023/09/06 03:43:29;;;;;;;13.87;12.77;;;;;;;16.18;100.00;93328.22;5070072;28;20182;-84
2023/09/06 03:45:58;;;;;;;13.70;12.50;;;;;;;16.16;100.00;93321.66;5071303;28;20233;-85
2023/09/06 03:48:25;;;;;;;13.93;12.83;;;;;;;16.23;100.00;93312.31;5071241;28;20197;-83
2023/09/06 03:50:53;;;;;;;14.50;11.37;;;;;;;16.35;100.00;93314.41;5069330;28;20241;-84
2023/09/06 03:53:19;;;;;;;14.73;12.03;;;;;;;16.26;100.00;93327.53;5066051;28;20201;-85
2023/09/06 03:55:46;;;;;;;13.70;12.30;;;;;;;16.22;100.00;93326.53;5069790;28;20233;-84
2023/09/06 03:58:12;;;;;;;13.50;12.50;;;;;;;16.36;100.00;93334.44;5075804;28;20183;-83
2023/09/06 04:00:41;;;;;;;14.30;13.03;;;;;;;16.33;100.00;93335.78;5077237;28;20221;-84
2023/09/06 04:03:10;;;;;;;13.73;12.40;;;;;;;16.26;100.00;93322.25;5069040;28;20173;-84
2023/09/06 04:05:36;;;;;;;13.63;12.67;;;;;;;16.34;100.00;93326.84;5068382;28;20221;-84
2023/09/06 04:08:03;;;;;;;11.77;10.87;;;;;;;16.45;100.00;93341.34;5071099;28;20276;-84
2023/09/06 04:10:36;;;;;;;14.13;11.87;;;;;;;16.47;100.00;93344.50;5068428;28;20236;-84
2023/09/06 04:13:03;;;;;;;13.33;12.20;;;;;;;16.49;100.00;93339.72;5068431;28;20192;-84
2023/09/06 04:15:29;;;;;;;12.53;11.33;;;;;;;16.36;100.00;93340.47;5080278;28;20251;-84
2023/09/06 04:17:57;;;;;;;14.27;12.97;;;;;;;16.50;99.62;93349.16;5070748;28;20248;-82
2023/09/06 04:20:35;;;;;;;12.27;11.43;;;;;;;16.57;99.13;93346.91;5067996;28;20236;-85
2023/09/06 04:23:01;;;;;;;12.50;11.30;;;;;;;16.50;99.79;93351.81;5059477;28;20195;-85
2023/09/06 04:25:27;;;;;;;12.83;11.60;;;;;;;16.64;99.97;93342.00;5071587;28;20293;-83
2023/09/06 04:27:56;;;;;;;12.20;11.20;;;;;;;16.61;99.67;93341.81;5080214;28;20185;-80
2023/09/06 04:30:30;;;;;;;13.10;12.00;;;;;;;16.58;100.00;93352.94;5066901;28;20317;-84
2023/09/06 04:32:58;;;;;;;13.13;12.03;;;;;;;16.59;99.83;93350.03;5064853;28;20191;-84
2023/09/06 04:35:33;;;;;;;12.70;11.57;;;;;;;16.66;99.83;93345.13;5067528;28;20258;-84
2023/09/06 04:37:58;;;;;;;12.63;11.63;;;;;;;16.67;98.09;93345.91;5068883;28;20227;-84
2023/09/06 04:40:24;;;;;;;12.67;11.27;;;;;;;16.65;97.63;93345.44;5069731;28;20233;-84
2023/09/06 04:42:49;;;;;;;13.10;11.97;;;;;;;16.70;98.08;93361.91;5070885;28;20189;-85
2023/09/06 04:45:15;;;;;;;12.63;11.73;;;;;;;16.77;97.68;93362.28;5070007;28;20213;-85
2023/09/06 04:47:42;;;;;;;12.73;11.63;;;;;;;16.71;98.20;93350.31;5068454;28;20197;-84
2023/09/06 04:50:08;;;;;;;13.53;12.43;;;;;;;16.81;97.34;93357.97;5069138;28;20281;-83
2023/09/06 04:52:43;;;;;;;13.93;12.73;;;;;;;16.69;98.87;93360.34;5070095;28;20173;-85
2023/09/06 04:55:08;;;;;;;13.93;12.57;;;;;;;16.59;97.75;93357.94;5056141;28;20212;-83
2023/09/06 04:57:36;;;;;;;13.87;12.70;;;;;;;16.89;97.24;93374.94;5068975;28;20195;-85
2023/09/06 05:00:10;;;;;;;16.07;12.93;;;;;;;16.88;95.45;93365.47;5057501;28;20189;-84
2023/09/06 05:02:36;;;;;;;13.73;12.43;;;;;;;16.98;95.98;93367.91;5069572;28;20185;-84
2023/09/06 05:05:01;;;;;;;13.63;12.53;;;;;;;16.79;98.08;93365.41;5068134;28;20192;-84
2023/09/06 05:07:26;;;;;;;13.07;11.97;;;;;;;16.87;95.76;93377.88;5057980;28;20193;-84
2023/09/06 05:09:56;;;;;;;12.70;11.60;;;;;;;16.93;94.51;93370.66;5069883;28;20200;-77
2023/09/06 05:12:22;;;;;;;13.00;11.70;;;;;;;16.82;95.89;93370.09;5066911;28;20186;-83
2023/09/06 05:14:47;;;;;;;12.97;11.90;;;;;;;16.85;96.42;93376.63;5058641;28;20189;-84
2023/09/06 05:17:13;;;;;;;12.67;11.40;;;;;;;16.70;95.49;93367.19;5065171;28;20241;-83
2023/09/06 05:19:38;;;;;;;12.70;11.33;;;;;;;16.76;95.22;93381.81;5067928;28;20240;-78
2023/09/06 05:22:04;;;;;;;12.57;11.60;;;;;;;16.85;95.38;93380.06;5076953;28;20270;-83
2023/09/06 05:24:29;;;;;;;19.57;12.37;;;;;;;16.95;96.03;93384.31;5079717;28;20185;-84
2023/09/06 05:26:55;;;;;;;12.13;11.00;;;;;;;17.01;95.48;93388.41;5069153;28;20229;-84
2023/09/06 05:29:20;;;;;;;12.23;11.33;;;;;;;16.94;95.51;93380.91;5068026;28;20192;-81
2023/09/06 05:31:46;;;;;;;11.50;10.67;;;;;;;16.83;93.70;93395.38;5068417;28;20259;-81
2023/09/06 05:34:11;;;;;;;12.47;11.50;;;;;;;16.94;94.15;93388.81;5070045;28;20188;-84
2023/09/06 05:36:36;;;;;;;12.83;11.63;;;;;;;16.94;94.09;93378.25;5067122;28;20232;-84
2023/09/06 05:39:06;;;;;;;12.03;10.83;;;;;;;17.16;92.51;93402.03;5060281;28;20193;-85
2023/09/06 05:41:32;;;;;;;11.20;10.40;;;;;;;17.17;93.10;93393.03;5063908;28;20232;-84
2023/09/06 05:49:02;;;;;;;13.43;12.43;;;;;;;16.89;95.54;93401.31;5146413;27;20306;-84
2023/09/06 05:51:28;;;;;;;13.70;12.60;;;;;;;16.93;94.77;93400.44;5103193;27;20229;-84
2023/09/06 05:53:53;;;;;;;12.97;11.80;;;;;;;16.84;94.27;93399.56;5087089;28;20242;-84
2023/09/06 05:56:19;;;;;;;12.43;11.43;;;;;;;16.92;94.44;93401.50;5093472;28;20246;-84
2023/09/06 05:58:44;;;;;;;14.03;12.87;;;;;;;16.90;94.68;93403.66;5086267;28;20207;-83
2023/09/06 06:01:11;;;;;;;12.83;11.73;;;;;;;17.04;95.07;93396.47;5086149;28;20227;-84
2023/09/06 06:03:37;;;;;;;13.30;12.20;;;;;;;17.14;93.17;93406.81;5086181;28;20236;-84
2023/09/06 06:06:06;;;;;;;12.80;11.80;;;;;;;17.05;92.90;93398.06;5085900;28;20252;-83
2023/09/06 06:08:31;;;;;;;12.37;11.53;;;;;;;17.04;93.46;93409.69;5086557;28;20235;-83
2023/09/06 06:10:56;;;;;;;13.10;12.10;;;;;;;17.34;91.41;93414.25;5086271;28;20228;-86
2023/09/06 06:13:22;;;;;;;12.27;11.43;;;;;;;17.38;90.72;93406.53;5086694;28;20184;-83
2023/09/06 06:15:48;;;;;;;12.60;11.70;;;;;;;17.16;90.41;93423.16;5085693;28;20225;-84
2023/09/06 06:18:15;;;;;;;13.93;12.63;;;;;;;17.24;90.87;93421.66;5085988;28;20180;-84
2023/09/06 06:20:41;;;;;;;12.60;11.70;;;;;;;17.41;90.13;93435.75;5085785;28;20232;-83
2023/09/06 06:23:07;;;;;;;13.57;12.40;;;;;;;17.54;89.00;93436.81;5085022;28;20177;-83
2023/09/06 06:25:32;;;;;;;13.73;12.50;;;;;;;17.79;87.90;93436.16;5085974;28;20220;-85
2023/09/06 06:27:57;;;;;;;13.23;12.03;;;;;;;17.95;87.23;93433.94;5085742;28;20217;-83
2023/09/06 06:30:23;;;;;;;13.53;12.43;;;;;;;17.96;86.64;93440.78;5085475;28;20881;-83
2023/09/06 06:32:48;;;;;;;12.97;11.97;;;;;;;17.89;88.29;93435.94;5084938;28;20261;-84
2023/09/06 06:35:14;;;;;;;12.63;11.37;;;;;;;17.96;85.84;93425.69;5085510;28;20251;-84
2023/09/06 06:37:40;;;;;;;13.47;12.10;;;;;;;18.27;86.20;93444.22;5085416;28;20201;-84
2023/09/06 06:40:06;;;;;;;12.57;11.67;;;;;;;18.47;84.67;93456.91;5086072;28;20186;-84
2023/09/06 06:42:32;;;;;;;13.40;12.20;;;;;;;18.37;84.06;93457.94;5085733;28;20178;-85
2023/09/06 06:44:57;;;;;;;13.00;11.90;;;;;;;18.46;83.74;93468.59;5084965;28;20190;-82
2023/09/06 06:47:23;;;;;;;12.73;11.53;;;;;;;18.34;84.28;93470.97;5065657;28;20255;-84
2023/09/06 06:49:52;;;;;;;13.57;12.47;;;;;;;18.40;85.14;93462.63;5065140;28;20248;-84
2023/09/06 06:52:18;;;;;;;12.40;11.33;;;;;;;18.37;85.80;93463.22;5065325;28;20206;-85
2023/09/06 06:54:44;;;;;;;12.40;11.50;;;;;;;18.42;85.08;93449.09;5064658;28;20211;-85
2023/09/06 06:57:09;;;;;;;13.30;12.30;;;;;;;18.60;84.16;93466.59;5083513;28;21090;-84
2023/09/06 06:59:34;;;;;;;13.37;12.37;;;;;;;18.67;84.00;93464.28;5076706;28;20784;-83
2023/09/06 07:02:00;;;;;;;13.87;12.57;;;;;;;18.58;84.79;93463.47;5071636;28;20283;-85
2023/09/06 07:04:26;;;;;;;14.17;12.67;;;;;;;18.88;83.65;93467.91;5070908;28;20192;-84
2023/09/06 07:06:51;;;;;;;12.40;11.43;;;;;;;19.10;82.82;93467.78;5071261;28;20232;-81
2023/09/06 07:09:16;;;;;;;12.87;11.67;;;;;;;19.28;81.64;93472.06;5071726;28;20246;-84
2023/09/06 07:11:42;;;;;;;13.73;12.63;;;;;;;19.27;81.94;93464.41;5071164;28;20473;-84
2023/09/06 07:14:07;;;;;;;12.87;11.87;;;;;;;19.36;81.46;93462.56;5071711;28;20251;-84
2023/09/06 07:16:33;;;;;;;19.97;18.37;;;;;;;19.44;81.39;93472.38;5071042;28;20208;-85
2023/09/06 07:18:59;;;;;;;17.02;15.52;;;;;;;19.59;81.81;93467.41;5071765;28;20187;-85
2023/09/06 07:21:25;;;;;;;16.03;14.67;;;;;;;19.70;81.40;93473.16;5070535;28;20246;-79
2023/09/06 07:23:51;;;;;;;12.80;11.80;;;;;;;19.80;78.90;93473.59;5071401;28;20252;-84
2023/09/06 07:26:16;;;;;;;14.03;12.83;;;;;;;19.89;78.24;93466.41;5070979;28;20220;-84
2023/09/06 07:28:43;;;;;;;14.73;12.97;;;;;;;20.12;77.62;93465.16;5071458;28;20216;-84
2023/09/06 07:31:10;;;;;;;13.80;12.67;;;;;;;20.55;74.37;93459.72;5060476;28;20235;-84
2023/09/06 07:33:35;;;;;;;13.88;12.68;;;;;;;20.68;73.19;93467.44;5051122;28;20189;-85
2023/09/06 07:36:01;;;;;;;13.27;12.15;;;;;;;20.62;72.95;93458.13;5050532;28;20225;-84
2023/09/06 07:38:27;;;;;;;13.05;11.82;;;;;;;20.78;73.13;93461.00;5052138;28;20779;-84
2023/09/06 07:41:07;;;;;;;12.45;11.15;;;;;;;20.82;71.49;93461.94;5059436;28;20246;-83
2023/09/06 07:43:35;;;;;;;13.57;12.50;;;;;;;21.15;71.46;93452.25;5071160;28;20194;-85
2023/09/06 07:46:01;;;;;;;13.18;12.13;;;;;;;21.53;70.31;93446.78;5061502;28;20227;-83
2023/09/06 07:48:29;;;;;;;12.13;11.00;;;;;;;22.00;68.92;93454.22;5049642;28;20237;-80
2023/09/06 07:50:56;;;;;;;13.43;11.75;;;;;;;21.72;68.20;93437.25;5058601;28;21391;-85
2023/09/06 07:53:23;;;;;;;12.63;11.48;;;;;;;21.34;69.46;93446.50;5071707;28;20250;-85
2023/09/06 07:55:49;;;;;;;12.15;11.15;;;;;;;21.10;74.20;93441.81;5070526;28;20244;-85
2023/09/06 07:58:15;;;;;;;12.60;11.60;;;;;;;20.65;74.16;93399.09;5070873;28;20231;-80
2023/09/06 08:00:42;;;;;;;12.82;11.25;;;;;;;20.61;75.37;93432.69;5070693;28;20220;-83
2023/09/06 08:03:08;;;;;;;12.40;11.50;;;;;;;20.67;76.78;93449.19;5070883;28;20211;-84
2023/09/06 08:05:37;;;;;;;13.07;12.10;;;;;;;20.62;76.83;93457.34;5069858;28;20575;-82
2023/09/06 08:08:07;;;;;;;12.30;11.40;;;;;;;20.95;75.65;93460.91;5070794;28;20205;-84
2023/09/06 08:10:33;;;;;;;14.48;11.50;;;;;;;21.24;73.50;93462.81;5068547;28;20234;-84
2023/09/06 08:12:59;;;;;;;12.10;11.13;;;;;;;21.45;71.40;93458.25;5070717;28;20197;-84
2023/09/06 08:15:24;;;;;;;12.73;11.63;;;;;;;21.60;70.76;93463.78;5070198;28;20220;-84
2023/09/06 08:17:50;;;;;;;11.95;11.05;;;;;;;21.10;71.32;93463.06;5070436;28;20200;-84
2023/09/06 08:20:16;;;;;;;12.95;11.50;;;;;;;21.34;73.84;93467.75;5070067;28;21310;-84
2023/09/06 08:22:43;;;;;;;12.65;11.52;;;;;;;21.37;72.00;93477.72;5070887;28;20197;-84
2023/09/06 08:25:08;;;;;;;12.55;11.65;;;;;;;21.34;73.18;93473.06;5069750;28;20170;-83
2023/09/06 08:27:34;;;;;;;10.98;10.13;;;;;;;21.61;71.84;93473.31;5070629;28;20227;-84
2023/09/06 08:29:59;;;;;;;13.30;11.93;;;;;;;21.47;68.42;93477.31;5069821;28;20296;-84
2023/09/06 08:32:25;;;;;;;13.50;12.40;;;;;;;21.42;70.58;93474.84;5070216;28;20182;-79
2023/09/06 08:34:50;;;;;;;13.00;11.80;;;;;;;21.59;71.46;93475.50;5070495;28;20216;-83
2023/09/06 08:37:15;;;;;;;11.98;10.88;;;;;;;21.90;68.86;93464.47;5070036;28;20282;-83
2023/09/06 08:39:41;;;;;;;13.23;11.93;;;;;;;21.48;71.95;93470.94;5070099;28;20252;-84
2023/09/06 08:42:07;;;;;;;14.20;13.00;;;;;;;21.40;71.06;93461.13;5070007;28;20218;-83
2023/09/06 08:44:33;;;;;;;12.75;11.85;;;;;;;21.71;69.18;93472.13;5069879;28;20274;-84
2023/09/06 08:47:04;;;;;;;13.40;12.20;;;;;;;21.84;67.28;93455.16;5069302;28;20237;-79
2023/09/06 08:49:30;;;;;;;13.07;11.98;;;;;;;22.24;67.38;93466.81;5070135;28;20199;-82
2023/09/06 08:51:57;;;;;;;13.35;12.07;;;;;;;21.49;68.25;93467.16;5052468;28;20230;-84
2023/09/06 08:54:23;;;;;;;13.45;12.20;;;;;;;21.85;67.13;93462.78;5050014;28;20191;-83
2023/09/06 08:56:53;;;;;;;13.20;12.15;;;;;;;22.20;65.24;93472.00;5064916;28;20242;-82
2023/09/06 08:59:22;;;;;;;12.55;11.73;;;;;;;21.63;66.04;93455.16;5058196;28;20190;-84
2023/09/06 09:01:47;;;;;;;12.73;11.70;;;;;;;22.06;64.67;93465.41;5069227;28;20204;-83
2023/09/06 09:04:12;;;;;;;13.55;12.05;;;;;;;22.46;64.55;93469.06;5070032;28;20199;-83
2023/09/06 09:06:44;;;;;;;13.13;11.85;;;;;;;22.50;62.94;93464.66;5069042;28;20253;-84
2023/09/06 09:09:16;;;;;;;12.52;11.63;;;;;;;22.57;62.96;93470.22;5070023;28;20204;-84
2023/09/06 09:11:49;;;;;;;12.98;11.88;;;;;;;22.46;65.76;93463.72;5069199;28;20216;-82
2023/09/06 09:14:22;;;;;;;13.20;12.02;;;;;;;22.60;62.18;93464.22;5069504;28;20183;-83
2023/09/06 09:17:05;;;;;;;11.93;10.77;;;;;;;22.58;63.49;93469.13;5052747;28;20226;-84
2023/09/06 09:19:30;;;;;;;13.45;12.05;;;;;;;23.04;60.96;93476.66;5048570;28;20204;-83
2023/09/06 09:21:56;;;;;;;12.18;11.18;;;;;;;23.20;61.86;93477.56;5065758;28;20232;-84
2023/09/06 09:24:31;;;;;;;13.23;12.02;;;;;;;23.34;61.00;93472.69;5069321;28;20218;-82
2023/09/06 09:26:56;;;;;;;12.73;11.73;;;;;;;23.40;61.14;93474.00;5057335;28;20222;-84
2023/09/06 09:29:27;;;;;;;13.15;11.93;;;;;;;23.64;59.45;93465.94;5069081;28;20229;-82
2023/09/06 09:31:53;;;;;;;12.75;11.63;;;;;;;23.78;59.87;93468.25;5068904;28;20311;-83
2023/09/06 09:34:18;;;;;;;16.13;12.02;;;;;;;23.74;59.97;93472.69;5069085;28;20192;-84
2023/09/06 09:36:51;;;;;;;11.80;11.02;;;;;;;23.78;59.52;93466.31;5067899;28;20220;-81
2023/09/06 09:39:18;;;;;;;13.18;11.98;;;;;;;23.89;59.22;93468.53;5069337;28;20216;-84
2023/09/06 09:41:44;;;;;;;12.10;11.20;;;;;;;24.00;60.77;93474.97;5068947;28;20250;-84
2023/09/06 09:44:13;;;;;;;12.88;11.70;;;;;;;23.80;62.02;93433.97;5069267;28;20202;-84
2023/09/06 09:46:42;;;;;;;12.27;11.43;;;;;;;23.79;62.76;93472.44;5068737;28;20238;-84
2023/09/06 09:49:10;;;;;;;12.55;11.65;;;;;;;23.26;66.89;93473.56;5068918;28;20199;-84
2023/09/06 09:51:35;;;;;;;14.60;12.43;;;;;;;23.61;62.86;93469.28;5068546;28;20258;-83
2023/09/06 09:54:05;;;;;;;12.77;11.77;;;;;;;23.64;62.18;93479.25;5068991;28;20216;-84
2023/09/06 09:56:34;;;;;;;13.13;12.02;;;;;;;23.51;60.90;93480.41;5067930;28;20226;-84
2023/09/06 09:59:04;;;;;;;12.40;11.35;;;;;;;23.65;60.07;93488.84;5069161;28;20225;-83
2023/09/06 10:01:31;;;;;;;12.07;10.88;;;;;;;23.67;61.20;93483.16;5068771;28;20223;-83
2023/09/06 10:04:00;;;;;;;13.32;12.10;;;;;;;23.50;61.19;93478.84;5068158;28;20241;-84
2023/09/06 10:06:32;;;;;;;13.38;11.93;;;;;;;23.80;61.43;93475.91;5068238;28;20247;-85
2023/09/06 10:09:07;;;;;;;12.48;11.48;;;;;;;24.03;61.11;93472.41;5069165;28;20220;-84
2023/09/06 10:11:34;;;;;;;12.13;11.13;;;;;;;24.02;58.35;93478.03;5068411;28;20211;-84
2023/09/06 10:14:03;;;;;;;13.30;11.95;;;;;;;23.85;60.50;93456.97;5069213;28;20218;-83
2023/09/06 10:16:31;;;;;;;12.77;11.77;;;;;;;23.93;60.28;93464.84;5064994;28;20294;-83
2023/09/06 10:18:57;;;;;;;12.40;11.30;;;;;;;23.92;60.26;93465.19;5069026;28;20192;-84
2023/09/06 10:21:24;;;;;;;12.73;11.73;;;;;;;23.65;62.68;93467.50;5068722;28;20222;-84
2023/09/06 10:23:50;;;;;;;11.82;10.73;;;;;;;23.86;62.63;93464.63;5069213;28;20197;-84
2023/09/06 10:26:26;;;;;;;14.35;12.13;;;;;;;24.23;60.59;93462.63;5068564;28;20224;-84
2023/09/06 10:28:58;;;;;;;12.82;11.75;;;;;;;24.35;57.66;93459.88;5068322;28;20211;-85
2023/09/06 10:31:34;;;;;;;13.35;12.13;;;;;;;24.22;58.70;93461.06;5068433;28;20210;-83
2023/09/06 10:34:00;;;;;;;12.98;11.82;;;;;;;24.37;57.59;93454.97;5069524;28;20278;-84
2023/09/06 10:36:29;;;;;;;13.88;12.40;;;;;;;24.28;59.21;93455.13;5072508;28;20232;-84
2023/09/06 10:38:55;;;;;;;14.90;11.73;;;;;;;24.02;59.42;93459.38;5073062;28;20188;-85
2023/09/06 10:41:27;;;;;;;13.52;12.23;;;;;;;24.07;58.10;93451.91;5072347;28;20228;-84
2023/09/06 10:43:58;;;;;;;13.63;12.57;;;;;;;24.08;56.63;93450.03;5072704;28;20184;-80
2023/09/06 10:46:28;;;;;;;14.25;12.60;;;;;;;23.98;57.69;93450.50;5072424;28;20227;-82
2023/09/06 10:49:12;;;;;;;15.23;12.32;;;;;;;23.10;57.83;93455.91;5072056;28;20235;-83
2023/09/06 10:52:03;;;;;;;14.38;13.18;;;;;;;22.80;60.19;93433.28;5071868;28;20228;-84
2023/09/06 10:54:40;;;;;;;14.38;12.60;;;;;;;23.28;57.12;93443.94;5061498;28;20187;-84
2023/09/06 10:57:10;;;;;;;14.00;12.65;;;;;;;23.25;59.12;93439.28;5071649;28;20677;-83
2023/09/06 10:59:43;;;;;;;14.65;13.23;;;;;;;22.82;59.58;93442.50;5072143;28;20202;-82
2023/09/06 11:02:20;;;;;;;15.60;14.00;;;;;;;22.69;59.70;93437.50;5071401;28;20227;-84
2023/09/06 11:04:46;;;;;;;14.45;13.05;;;;;;;22.72;59.00;93437.63;5072128;28;20222;-85
2023/09/06 11:07:12;;;;;;;22.45;13.60;;;;;;;22.23;60.59;93425.34;5071001;28;20241;-83
2023/09/06 11:09:43;;;;;;;14.70;13.30;;;;;;;22.61;59.98;93430.41;5072331;28;20247;-84
2023/09/06 11:12:18;;;;;;;14.05;12.75;;;;;;;22.92;59.12;93435.94;5071002;28;20240;-84
2023/09/06 11:14:49;;;;;;;14.77;13.40;;;;;;;23.01;59.28;93439.25;5071599;28;20182;-83
2023/09/06 11:17:23;;;;;;;15.43;13.93;;;;;;;22.66;59.22;93428.31;5071510;28;20221;-83
2023/09/06 11:19:50;;;;;;;14.43;13.15;;;;;;;23.37;59.19;93436.56;5071564;28;20199;-80
2023/09/06 11:22:16;;;;;;;14.38;13.10;;;;;;;23.47;57.78;93428.88;5071306;28;20228;-83